createdAt,value
2022-07-29T00:02:00.880Z,1.50
2022-07-29T00:04:28.895Z,1.40
2022-07-29T00:06:58.203Z,1.40
2022-07-29T00:09:25.959Z,1.30
2022-07-29T00:11:53.935Z,1.67
2022-07-29T00:14:21.833Z,1.20
2022-07-29T00:16:49.688Z,1.40
2022-07-29T00:19:17.563Z,1.40
2022-07-29T00:21:45.327Z,1.53
2022-07-29T00:24:14.705Z,1.77
2022-07-29T00:26:42.640Z,1.00
2022-07-29T00:29:33.471Z,1.00
2022-07-29T00:31:58.505Z,1.90
2022-07-29T00:34:43.621Z,1.40
2022-07-29T00:37:11.418Z,1.70
2022-07-29T00:39:40.601Z,1.40
2022-07-29T00:42:08.943Z,1.60
2022-07-29T00:44:39.505Z,1.33
2022-07-29T00:47:08.237Z,1.10
2022-07-29T00:49:37.160Z,1.20
2022-07-29T00:52:06.292Z,1.30
2022-07-29T00:54:34.405Z,1.30
2022-07-29T00:57:03.827Z,1.50
2022-07-29T00:59:35.426Z,1.37
2022-07-29T01:02:04.180Z,1.50
2022-07-29T01:04:33.288Z,1.43
2022-07-29T01:07:03.458Z,1.40
2022-07-29T01:09:42.764Z,1.37
2022-07-29T01:12:16.762Z,1.30
2022-07-29T01:14:45.147Z,1.40
2022-07-29T01:17:16.071Z,1.70
2022-07-29T01:19:53.043Z,1.37
2022-07-29T01:22:33.811Z,1.50
2022-07-29T01:25:26.133Z,1.60
2022-07-29T01:28:24.668Z,1.47
2022-07-29T01:30:57.471Z,1.93
2022-07-29T01:33:46.086Z,1.40
2022-07-29T01:36:16.795Z,1.80
2022-07-29T01:38:47.518Z,1.70
2022-07-29T01:41:18.352Z,1.20
2022-07-29T01:43:51.732Z,1.50
2022-07-29T01:46:25.787Z,1.13
2022-07-29T01:48:59.617Z,1.67
2022-07-29T01:51:33.574Z,1.37
2022-07-29T01:54:06.245Z,1.97
2022-07-29T01:56:35.366Z,1.37
2022-07-29T01:59:05.095Z,1.63
2022-07-29T02:01:35.783Z,1.50
2022-07-29T02:04:05.510Z,1.40
2022-07-29T02:06:35.420Z,1.20
2022-07-29T02:09:05.435Z,1.40
2022-07-29T02:11:38.438Z,1.60
2022-07-29T02:14:07.331Z,1.63
2022-07-29T02:16:39.289Z,1.27
2022-07-29T02:19:09.706Z,2.00
2022-07-29T02:21:37.845Z,1.10
2022-07-29T02:24:06.935Z,2.07
2022-07-29T02:26:36.012Z,1.53
2022-07-29T02:29:04.476Z,1.60
2022-07-29T02:31:35.320Z,1.50
2022-07-29T02:34:07.845Z,1.70
2022-07-29T02:36:36.695Z,1.47
2022-07-29T02:39:06.731Z,1.63
2022-07-29T02:41:43.274Z,1.63
2022-07-29T02:44:14.030Z,1.93
2022-07-29T02:46:48.391Z,1.63
2022-07-29T02:49:24.898Z,2.10
2022-07-29T02:51:56.855Z,1.60
2022-07-29T02:54:33.024Z,1.60
2022-07-29T02:57:05.944Z,1.50
2022-07-29T02:59:38.383Z,1.60
2022-07-29T03:02:08.572Z,1.60
2022-07-29T03:04:39.582Z,1.40
2022-07-29T03:07:07.812Z,1.63
2022-07-29T03:09:36.236Z,1.70
2022-07-29T03:12:04.829Z,1.90
2022-07-29T03:14:33.729Z,1.50
2022-07-29T03:17:02.441Z,1.50
2022-07-29T03:19:30.286Z,1.40
2022-07-29T03:22:00.426Z,1.67
2022-07-29T03:24:31.758Z,1.70
2022-07-29T03:27:00.554Z,1.53
2022-07-29T03:29:34.058Z,1.63
2022-07-29T03:32:03.368Z,1.60
2022-07-29T03:34:32.146Z,1.60
2022-07-29T03:37:01.561Z,2.00
2022-07-29T03:39:33.451Z,1.67
2022-07-29T03:42:02.908Z,1.73
2022-07-29T03:44:31.027Z,1.77
2022-07-29T03:47:03.010Z,1.80
2022-07-29T03:49:32.478Z,1.50
2022-07-29T03:52:02.475Z,1.73
2022-07-29T03:54:30.294Z,1.53
2022-07-29T03:57:03.090Z,1.80
2022-07-29T03:59:37.187Z,1.67
2022-07-29T04:02:06.360Z,1.90
2022-07-29T04:04:35.494Z,2.00
2022-07-29T04:07:05.564Z,1.80
2022-07-29T04:09:34.029Z,1.60
2022-07-29T04:12:04.340Z,2.10
2022-07-29T04:14:33.186Z,1.93
2022-07-29T04:17:01.048Z,1.77
2022-07-29T04:19:28.943Z,2.07
2022-07-29T04:21:56.997Z,2.53
2022-07-29T04:24:26.327Z,1.80
2022-07-29T04:26:54.485Z,2.20
2022-07-29T04:29:22.427Z,2.00
2022-07-29T04:31:50.332Z,2.30
2022-07-29T04:34:18.793Z,2.07
2022-07-29T04:36:47.203Z,2.10
2022-07-29T04:39:19.278Z,2.23
2022-07-29T04:41:52.462Z,2.10
2022-07-29T04:44:22.814Z,1.80
2022-07-29T04:46:57.109Z,2.10
2022-07-29T04:49:25.031Z,1.90
2022-07-29T04:51:52.884Z,1.90
2022-07-29T04:54:20.804Z,1.97
2022-07-29T04:56:48.689Z,2.00
2022-07-29T04:59:18.081Z,2.17
2022-07-29T05:01:46.043Z,2.30
2022-07-29T05:04:14.281Z,2.10
2022-07-29T05:06:42.326Z,2.50
2022-07-29T05:09:10.105Z,2.20
2022-07-29T05:11:37.975Z,1.57
2022-07-29T05:14:05.970Z,2.20
2022-07-29T05:16:35.354Z,2.10
2022-07-29T05:19:03.181Z,2.30
2022-07-29T05:21:31.029Z,2.23
2022-07-29T05:23:58.858Z,2.37
2022-07-29T05:26:26.666Z,1.97
2022-07-29T05:28:54.809Z,2.33
2022-07-29T05:31:22.773Z,2.17
2022-07-29T05:33:52.164Z,2.13
2022-07-29T05:36:19.995Z,2.30
2022-07-29T05:38:47.855Z,2.47
2022-07-29T05:41:15.701Z,2.03
2022-07-29T05:43:43.552Z,2.60
2022-07-29T05:46:11.464Z,2.20
2022-07-29T05:48:39.899Z,2.10
2022-07-29T05:51:09.340Z,2.80
2022-07-29T05:53:37.232Z,2.43
2022-07-29T05:56:06.776Z,2.80
2022-07-29T05:58:34.761Z,2.20
2022-07-29T06:01:02.711Z,2.30
2022-07-29T06:03:31.233Z,2.73
2022-07-29T06:05:59.054Z,2.33
2022-07-29T06:08:28.230Z,2.37
2022-07-29T06:10:56.185Z,2.60
2022-07-29T06:13:27.643Z,2.60
2022-07-29T06:15:55.550Z,2.37
2022-07-29T06:18:25.765Z,2.70
2022-07-29T06:20:53.538Z,2.37
2022-07-29T06:23:22.334Z,2.50
2022-07-29T06:25:51.629Z,2.20
2022-07-29T06:28:19.532Z,2.20
2022-07-29T06:30:47.525Z,2.53
2022-07-29T06:33:18.914Z,2.47
2022-07-29T06:35:53.553Z,2.20
2022-07-29T06:41:17.003Z,2.43
2022-07-29T06:43:51.081Z,2.73
2022-07-29T06:46:23.761Z,2.47
2022-07-29T06:48:52.994Z,2.53
2022-07-29T06:51:23.244Z,2.93
2022-07-29T06:53:59.591Z,2.80
2022-07-29T06:56:39.572Z,2.20
2022-07-29T06:59:10.550Z,2.80
2022-07-29T07:01:39.323Z,2.47
2022-07-29T07:04:09.754Z,2.50
2022-07-29T07:06:38.872Z,2.60
2022-07-29T07:09:06.915Z,2.27
2022-07-29T07:11:36.392Z,2.10
2022-07-29T07:14:04.584Z,2.53
2022-07-29T07:16:33.119Z,3.13
2022-07-29T07:19:01.394Z,2.60
2022-07-29T07:21:32.444Z,2.80
2022-07-29T07:24:00.917Z,3.50
2022-07-29T07:26:29.157Z,3.07
2022-07-29T07:28:58.746Z,3.47
2022-07-29T07:31:26.641Z,2.70
2022-07-29T07:33:55.371Z,2.63
2022-07-29T07:36:23.581Z,2.60
2022-07-29T07:38:51.703Z,2.70
2022-07-29T07:41:25.505Z,2.90
2022-07-29T07:43:53.338Z,2.97
2022-07-29T07:46:22.662Z,2.50
2022-07-29T07:48:50.630Z,2.93
2022-07-29T07:51:21.160Z,2.90
2022-07-29T07:53:50.625Z,2.70
2022-07-29T07:56:18.554Z,3.03
2022-07-29T07:58:46.429Z,2.97
2022-07-29T08:01:14.345Z,3.10
2022-07-29T08:03:43.858Z,2.90
2022-07-29T08:06:11.744Z,2.60
2022-07-29T08:08:39.594Z,3.13
2022-07-29T08:11:09.732Z,3.30
2022-07-29T08:13:38.836Z,2.60
2022-07-29T08:16:13.605Z,2.80
2022-07-29T08:18:44.522Z,2.80
2022-07-29T08:21:14.838Z,3.07
2022-07-29T08:23:53.005Z,2.80
2022-07-29T08:26:27.873Z,2.30
2022-07-29T08:28:55.812Z,2.67
2022-07-29T08:31:23.655Z,3.47
2022-07-29T08:33:53.139Z,2.80
2022-07-29T08:36:22.368Z,2.60
2022-07-29T08:38:50.622Z,2.77
2022-07-29T08:41:20.049Z,2.90
2022-07-29T08:43:48.217Z,3.00
2022-07-29T08:46:16.291Z,2.63
2022-07-29T08:48:44.385Z,2.87
2022-07-29T08:51:17.089Z,2.73
2022-07-29T08:53:46.619Z,2.60
2022-07-29T08:56:15.568Z,2.80
2022-07-29T08:58:47.964Z,2.93
2022-07-29T09:01:35.769Z,2.50
2022-07-29T09:04:07.947Z,2.83
2022-07-29T09:06:39.430Z,3.73
2022-07-29T09:09:09.595Z,3.13
2022-07-29T09:11:37.719Z,2.57
2022-07-29T09:14:05.656Z,3.20
2022-07-29T09:16:58.204Z,2.83
2022-07-29T09:19:28.944Z,3.07
2022-07-29T09:22:03.462Z,2.67
2022-07-29T09:24:46.137Z,2.67
2022-07-29T09:27:23.140Z,2.87
2022-07-29T09:29:59.371Z,2.83
2022-07-29T09:32:28.240Z,2.70
2022-07-29T09:35:17.412Z,2.40
2022-07-29T09:37:46.906Z,2.87
2022-07-29T09:40:17.853Z,2.67
2022-07-29T09:42:46.450Z,2.70
2022-07-29T09:45:15.046Z,3.00
2022-07-29T09:47:45.891Z,3.00
2022-07-29T09:50:13.831Z,2.80
2022-07-29T09:52:52.902Z,2.63
2022-07-29T09:55:21.631Z,2.90
2022-07-29T09:57:49.947Z,3.00
2022-07-29T10:00:20.515Z,2.77
2022-07-29T10:02:49.767Z,2.83
2022-07-29T10:05:23.198Z,2.93
2022-07-29T10:07:54.286Z,3.27
2022-07-29T10:10:26.373Z,3.17
2022-07-29T10:12:56.608Z,3.07
2022-07-29T10:15:26.540Z,3.17
2022-07-29T10:17:55.653Z,2.90
2022-07-29T10:20:24.674Z,2.63
2022-07-29T10:22:54.785Z,2.93
2022-07-29T10:25:26.028Z,2.77
2022-07-29T10:27:54.743Z,2.67
2022-07-29T10:30:29.125Z,2.60
2022-07-29T10:33:27.188Z,3.13
2022-07-29T10:36:17.420Z,2.60
2022-07-29T10:39:06.274Z,2.85
2022-07-29T10:41:49.683Z,2.95
2022-07-29T10:44:23.265Z,2.20
2022-07-29T10:46:53.423Z,3.05
2022-07-29T10:49:25.317Z,2.70
2022-07-29T10:52:06.041Z,2.90
2022-07-29T10:54:51.064Z,2.72
2022-07-29T10:57:54.519Z,2.38
2022-07-29T11:00:32.375Z,2.38
2022-07-29T11:03:04.672Z,2.60
2022-07-29T11:05:54.267Z,2.92
2022-07-29T11:08:34.941Z,2.70
2022-07-29T11:11:37.671Z,2.75
2022-07-29T11:14:10.190Z,3.20
2022-07-29T11:17:06.091Z,3.13
2022-07-29T11:19:35.845Z,2.72
2022-07-29T11:25:14.865Z,2.63
2022-07-29T11:27:46.558Z,2.78
2022-07-29T11:30:17.543Z,3.33
2022-07-29T11:32:48.554Z,2.65
2022-07-29T11:38:29.184Z,2.72
2022-07-29T11:41:21.826Z,2.47
2022-07-29T11:43:50.817Z,2.72
2022-07-29T11:46:35.549Z,2.22
2022-07-29T11:49:04.849Z,1.95
2022-07-29T11:51:38.186Z,2.47
2022-07-29T11:54:27.319Z,2.50
2022-07-29T11:56:56.438Z,2.13
2022-07-29T11:59:33.425Z,2.67
2022-07-29T12:02:36.630Z,2.58
2022-07-29T12:04:52.384Z,2.60
2022-07-29T12:07:20.697Z,2.28
2022-07-29T12:09:52.805Z,2.38
2022-07-29T12:12:25.220Z,2.22
2022-07-29T12:14:53.263Z,2.22
2022-07-29T12:17:31.516Z,2.60
2022-07-29T12:20:01.631Z,2.78
2022-07-29T12:22:32.447Z,2.53
2022-07-29T12:25:30.286Z,2.80
2022-07-29T12:28:01.360Z,2.53
2022-07-29T12:30:45.093Z,2.53
2022-07-29T12:33:19.743Z,2.75
2022-07-29T12:36:06.286Z,2.80
2022-07-29T12:38:35.795Z,3.03
2022-07-29T12:41:04.841Z,2.97
2022-07-29T12:43:33.515Z,2.67
2022-07-29T12:46:14.585Z,2.90
2022-07-29T12:48:45.330Z,2.83
2022-07-29T12:51:15.488Z,2.67
2022-07-29T12:53:43.545Z,2.78
2022-07-29T12:56:41.681Z,2.58
2022-07-29T12:59:14.488Z,2.83
2022-07-29T13:01:42.703Z,2.65
2022-07-29T13:04:12.121Z,2.42
2022-07-29T13:06:42.656Z,2.40
2022-07-29T13:09:16.602Z,2.92
2022-07-29T13:11:58.731Z,2.90
2022-07-29T13:14:34.375Z,2.75
2022-07-29T13:17:04.944Z,3.00
2022-07-29T13:19:38.966Z,2.65
2022-07-29T13:22:07.262Z,3.13
2022-07-29T13:24:35.527Z,3.00
2022-07-29T13:27:05.874Z,2.92
2022-07-29T13:29:34.186Z,3.10
2022-07-29T13:32:02.120Z,3.30
2022-07-29T13:34:29.926Z,2.85
2022-07-29T13:36:59.189Z,2.40
2022-07-29T13:39:27.057Z,2.75
2022-07-29T13:41:55.284Z,3.10
2022-07-29T13:44:24.342Z,3.03
2022-07-29T13:46:52.483Z,2.63
2022-07-29T13:49:20.393Z,2.65
2022-07-29T13:51:48.329Z,3.47
2022-07-29T13:54:19.681Z,3.00
2022-07-29T13:56:47.963Z,3.90
2022-07-29T13:59:15.882Z,2.97
2022-07-29T14:01:44.046Z,3.28
2022-07-29T14:04:13.708Z,3.15
2022-07-29T14:06:44.345Z,3.90
2022-07-29T14:09:12.230Z,3.38
2022-07-29T14:11:41.441Z,3.00
2022-07-29T14:14:11.272Z,3.25
2022-07-29T14:16:43.127Z,3.00
2022-07-29T14:19:15.516Z,3.90
2022-07-29T14:21:43.684Z,3.50
2022-07-29T14:24:17.836Z,3.53
2022-07-29T14:26:51.187Z,3.50
2022-07-29T14:29:19.055Z,3.95
2022-07-29T14:31:46.976Z,3.33
2022-07-29T14:34:16.396Z,3.13
2022-07-29T14:36:44.589Z,3.80
2022-07-29T14:39:12.791Z,3.45
2022-07-29T14:41:40.690Z,2.90
2022-07-29T14:44:09.952Z,2.92
2022-07-29T14:46:37.816Z,3.03
2022-07-29T14:49:06.599Z,2.78
2022-07-29T14:51:37.606Z,2.67
2022-07-29T14:54:05.820Z,2.80
2022-07-29T14:56:36.908Z,2.75
2022-07-29T14:59:05.323Z,2.75
2022-07-29T15:01:34.658Z,3.00
2022-07-29T15:04:02.591Z,3.53
2022-07-29T15:06:30.431Z,2.55
2022-07-29T15:08:58.467Z,2.88
2022-07-29T15:11:26.437Z,3.08
2022-07-29T15:13:54.345Z,3.20
2022-07-29T15:16:23.119Z,3.00
2022-07-29T15:18:52.672Z,3.00
2022-07-29T15:21:20.556Z,3.22
2022-07-29T15:23:48.546Z,3.10
2022-07-29T15:26:16.543Z,3.15
2022-07-29T15:28:44.419Z,3.13
2022-07-29T15:31:12.257Z,2.72
2022-07-29T15:33:40.554Z,2.78
2022-07-29T15:36:11.665Z,3.35
2022-07-29T15:38:41.754Z,3.20
2022-07-29T15:41:10.110Z,3.17
2022-07-29T15:43:38.309Z,3.10
2022-07-29T15:46:26.426Z,2.67
2022-07-29T15:48:54.379Z,3.10
2022-07-29T15:51:24.530Z,3.35
2022-07-29T15:53:53.564Z,3.30
2022-07-29T15:56:21.790Z,3.90
2022-07-29T15:58:49.682Z,3.20
2022-07-29T16:01:17.777Z,2.85
2022-07-29T16:03:46.583Z,3.10
2022-07-29T16:06:14.600Z,2.88
2022-07-29T16:08:43.879Z,2.63
2022-07-29T16:11:11.765Z,3.08
2022-07-29T16:13:39.654Z,2.90
2022-07-29T16:16:07.970Z,2.67
2022-07-29T16:18:35.849Z,2.40
2022-07-29T16:21:03.751Z,2.85
2022-07-29T16:23:32.205Z,2.67
2022-07-29T16:26:01.654Z,2.63
2022-07-29T16:28:30.534Z,2.40
2022-07-29T16:30:58.608Z,2.58
2022-07-29T16:33:26.802Z,2.03
2022-07-29T16:35:54.739Z,2.83
2022-07-29T16:38:23.549Z,2.42
2022-07-29T16:40:51.460Z,2.22
2022-07-29T16:43:20.800Z,2.47
2022-07-29T16:45:48.710Z,1.98
2022-07-29T16:48:18.168Z,2.65
2022-07-29T16:50:46.754Z,2.50
2022-07-29T16:53:14.684Z,2.47
2022-07-29T16:55:42.711Z,2.53
2022-07-29T16:58:11.346Z,2.20
2022-07-29T17:00:41.147Z,2.38
2022-07-29T17:03:09.072Z,2.60
2022-07-29T17:05:52.655Z,2.20
2022-07-29T17:08:22.803Z,2.53
2022-07-29T17:10:51.009Z,2.20
2022-07-29T17:13:18.860Z,2.38
2022-07-29T17:15:48.153Z,2.80
2022-07-29T17:18:16.227Z,2.40
2022-07-29T17:20:44.081Z,2.83
2022-07-29T17:23:11.922Z,2.63
2022-07-29T17:25:39.739Z,2.78
2022-07-29T17:28:07.574Z,2.65
2022-07-29T17:30:35.637Z,2.53
2022-07-29T17:33:04.923Z,2.70
2022-07-29T17:35:50.331Z,2.85
2022-07-29T17:38:18.223Z,2.60
2022-07-29T17:40:46.021Z,2.53
2022-07-29T17:43:13.892Z,2.88
2022-07-29T17:45:49.334Z,2.80
2022-07-29T17:48:20.580Z,2.72
2022-07-29T17:50:49.579Z,2.70
2022-07-29T17:53:17.614Z,2.65
2022-07-29T17:55:46.286Z,3.10
2022-07-29T17:58:14.358Z,2.65
2022-07-29T18:00:42.274Z,2.42
2022-07-29T18:03:16.029Z,2.63
2022-07-29T18:05:45.754Z,3.08
2022-07-29T18:08:13.588Z,2.95
2022-07-29T18:10:42.415Z,3.00
2022-07-29T18:13:12.548Z,2.50
2022-07-29T18:15:41.259Z,3.10
2022-07-29T18:18:09.470Z,3.38
2022-07-29T18:20:37.480Z,2.90
2022-07-29T18:23:06.954Z,2.72
2022-07-29T18:25:34.859Z,3.00
2022-07-29T18:28:03.027Z,2.75
2022-07-29T18:30:33.714Z,3.38
2022-07-29T18:35:52.442Z,2.90
2022-07-29T18:38:40.478Z,2.50
2022-07-29T18:41:08.372Z,2.63
2022-07-29T18:43:36.462Z,2.65
2022-07-29T18:46:05.857Z,2.50
2022-07-29T18:48:34.149Z,2.38
2022-07-29T18:51:02.081Z,3.13
2022-07-29T18:53:37.120Z,2.88
2022-07-29T18:56:06.949Z,2.78
2022-07-29T18:58:36.879Z,2.60
2022-07-29T19:01:04.785Z,2.97
2022-07-29T19:03:32.709Z,2.65
2022-07-29T19:06:00.554Z,2.80
2022-07-29T19:08:28.410Z,2.83
2022-07-29T19:10:56.341Z,2.50
2022-07-29T19:13:25.659Z,2.55
2022-07-29T19:15:53.658Z,2.60
2022-07-29T19:18:21.530Z,2.95
2022-07-29T19:20:49.404Z,2.92
2022-07-29T19:23:17.505Z,2.88
2022-07-29T19:25:53.815Z,2.83
2022-07-29T19:28:22.443Z,2.75
2022-07-29T19:30:51.861Z,3.08
2022-07-29T19:33:20.371Z,2.70
2022-07-29T19:35:52.867Z,2.55
2022-07-29T19:38:22.542Z,2.50
2022-07-29T19:40:50.467Z,2.80
2022-07-29T19:43:51.688Z,2.70
2022-07-29T19:46:07.631Z,2.63
2022-07-29T19:48:35.751Z,2.88
2022-07-29T19:51:03.624Z,3.30
2022-07-29T19:53:32.414Z,3.42
2022-07-29T19:56:03.198Z,2.80
2022-07-29T19:58:31.272Z,2.63
2022-07-29T20:01:00.424Z,2.60
2022-07-29T20:03:29.771Z,2.75
2022-07-29T20:05:58.196Z,3.13
2022-07-29T20:08:26.046Z,2.70
2022-07-29T20:10:54.682Z,2.75
2022-07-29T20:13:22.609Z,2.70
2022-07-29T20:15:50.496Z,2.55
2022-07-29T20:18:18.343Z,2.72
2022-07-29T20:20:48.166Z,2.75
2022-07-29T20:23:16.442Z,3.00
2022-07-29T20:25:44.338Z,3.45
2022-07-29T20:28:12.314Z,3.13
2022-07-29T20:30:40.275Z,3.35
2022-07-29T20:33:08.242Z,3.30
2022-07-29T20:35:36.115Z,3.10
2022-07-29T20:38:05.411Z,3.20
2022-07-29T20:40:33.376Z,2.70
2022-07-29T20:43:01.153Z,3.10
2022-07-29T20:45:29.029Z,2.80
2022-07-29T20:47:57.124Z,3.03
2022-07-29T20:50:25.602Z,2.97
2022-07-29T20:52:53.678Z,3.10
2022-07-29T20:55:23.013Z,2.50
2022-07-29T20:57:50.929Z,2.83
2022-07-29T21:00:19.005Z,2.50
2022-07-29T21:02:47.234Z,2.50
2022-07-29T21:05:18.134Z,2.85
2022-07-29T21:07:46.224Z,2.70
2022-07-29T21:10:14.317Z,3.35
2022-07-29T21:12:43.738Z,2.70
2022-07-29T21:15:13.507Z,2.90
2022-07-29T21:17:46.766Z,3.15
2022-07-29T21:20:15.525Z,2.60
2022-07-29T21:22:43.508Z,2.33
2022-07-29T21:25:11.886Z,2.73
2022-07-29T21:27:57.003Z,2.70
2022-07-29T21:30:26.392Z,2.70
2022-07-29T21:32:54.281Z,3.17
2022-07-29T21:35:35.658Z,2.80
2022-07-29T21:38:09.942Z,2.50
2022-07-29T21:40:37.865Z,2.87
2022-07-29T21:43:06.012Z,2.87
2022-07-29T21:45:35.345Z,3.00
2022-07-29T21:48:03.188Z,2.80
2022-07-29T21:50:31.033Z,2.40
2022-07-29T21:52:58.876Z,2.50
2022-07-29T21:55:27.663Z,2.40
2022-07-29T21:57:57.941Z,2.73
2022-07-29T22:00:26.609Z,2.60
2022-07-29T22:02:55.971Z,2.50
2022-07-29T22:05:24.242Z,2.67
2022-07-29T22:07:54.550Z,2.93
2022-07-29T22:10:25.081Z,2.20
2022-07-29T22:12:53.378Z,2.50
2022-07-29T22:15:21.481Z,2.60
2022-07-29T22:17:49.415Z,2.87
2022-07-29T22:20:19.335Z,2.97
2022-07-29T22:22:47.192Z,3.30
2022-07-29T22:25:15.114Z,3.27
2022-07-29T22:27:43.187Z,3.30
2022-07-29T22:30:12.031Z,3.67
2022-07-29T22:32:40.146Z,3.73
2022-07-29T22:35:08.663Z,3.80
2022-07-29T22:37:38.118Z,2.90
2022-07-29T22:40:07.357Z,3.63
2022-07-29T22:42:35.460Z,2.93
2022-07-29T22:45:04.151Z,3.47
2022-07-29T22:47:46.480Z,3.00
2022-07-29T22:50:16.623Z,3.53
2022-07-29T22:52:46.202Z,3.00
2022-07-29T22:55:14.345Z,3.20
2022-07-29T22:57:42.519Z,3.40
2022-07-29T23:00:11.650Z,3.13
2022-07-29T23:02:40.379Z,3.23
2022-07-29T23:05:10.346Z,3.80
2022-07-29T23:07:38.497Z,3.47
2022-07-29T23:10:08.902Z,3.27
2022-07-29T23:12:36.792Z,3.37
2022-07-29T23:15:05.151Z,3.90
2022-07-29T23:17:36.314Z,3.83
2022-07-29T23:20:07.196Z,3.90
2022-07-29T23:22:35.147Z,3.80
2022-07-29T23:25:03.027Z,3.50
2022-07-29T23:27:32.245Z,3.30
2022-07-29T23:30:00.177Z,3.43
2022-07-29T23:32:28.079Z,3.70
2022-07-29T23:34:55.886Z,3.23
2022-07-29T23:37:23.717Z,3.33
2022-07-29T23:39:54.684Z,3.40
2022-07-29T23:42:22.493Z,3.90
2022-07-29T23:44:51.901Z,3.33
2022-07-29T23:47:19.759Z,3.63
2022-07-29T23:49:49.910Z,3.53
2022-07-29T23:52:17.933Z,3.50
2022-07-29T23:54:46.020Z,3.30
2022-07-29T23:57:14.010Z,3.33
2022-07-29T23:59:41.871Z,3.60
